LICT/TPS METAR and TAF weather

Enter ICAO airport designator
Station Type Date Time Source
LICT METAR 2019/04/23 03:55 UTC NOAA

LICT 230355Z 15011KT 9999 SCT015 16/15 Q1003


Station Type Date Time Source
LICT Decoded METAR 2019/04/23 03:55 UTC NOAA

Trapani / Birgi, Italy (LICT) 37-55N 012-30E 14M
Apr 22, 2019 - 11:55 PM EDT / 2019.04.23 0355 UTC
Wind: from the SSE (150 degrees) at 13 MPH (11 KT):0
Visibility: greater than 7 mile(s):0
Sky conditions: partly cloudy
Temperature: 60 F (16 C)
Dew Point: 59 F (15 C)
Relative Humidity: 93%
Pressure (altimeter): 29.62 in. Hg (1003 hPa)
ob: LICT 230355Z 15011KT 9999 SCT015 16/15 Q1003
cycle: 4

Station Type Date Time Source
LICT TAF 2019/01/11 09:24 UTC NOAA

TAF TAF LICT 110800Z 1109/1121 33012KT 9999 SCT025

Example: see airport list